Time;durP1;ratioP1;P1;durP2;ratioP2;P2;SDS_P1;SDS_P2;PMS_P1;PMS_P2;Temp;Humidity;BMP_temperature;BMP_pressure;BME280_temperature;BME280_humidity;BME280_pressure;Samples;Min_cycle;Max_cycle;Signal;HPM_P1;HPM_P2
2024/03/10 00:00:20;;;;;;;47.13;23.88;;;;;;;-141.50;100.00;63355.56;5011238;28;20052;-81
2024/03/10 00:02:48;;;;;;;57.22;24.75;;;;;;;-141.50;100.00;63355.56;5011311;28;20857;-80
2024/03/10 00:05:15;;;;;;;50.45;24.08;;;;;;;-141.50;100.00;63355.56;5002997;28;20499;-79
2024/03/10 00:07:44;;;;;;;50.08;23.25;;;;;;;-141.50;100.00;63355.56;4994031;28;20459;-80
2024/03/10 00:10:14;;;;;;;48.97;23.35;;;;;;;-141.50;100.00;63355.56;4986172;28;20069;-80
2024/03/10 00:12:47;;;;;;;51.28;23.77;;;;;;;-141.50;100.00;63355.56;4994899;28;20058;-79
2024/03/10 00:15:17;;;;;;;53.15;22.83;;;;;;;-141.50;100.00;63355.56;4979442;28;20054;-80
2024/03/10 00:17:47;;;;;;;51.20;24.08;;;;;;;-141.50;100.00;63355.56;5012206;28;20144;-79
2024/03/10 00:20:19;;;;;;;52.83;23.83;;;;;;;-141.50;100.00;63355.56;4978468;28;20547;-79
2024/03/10 00:22:47;;;;;;;47.38;22.58;;;;;;;-141.50;100.00;63355.56;5011514;28;20053;-80
2024/03/10 00:25:18;;;;;;;56.10;24.33;;;;;;;-141.50;100.00;63355.56;4992629;28;20077;-79
2024/03/10 00:27:45;;;;;;;54.38;23.90;;;;;;;-141.50;100.00;63355.56;5011349;28;20062;-80
2024/03/10 00:30:12;;;;;;;54.33;23.75;;;;;;;-141.50;100.00;63355.56;4993262;28;20108;-79
2024/03/10 00:32:39;;;;;;;53.38;23.88;;;;;;;-141.50;100.00;63355.56;4990426;28;20420;-80
2024/03/10 00:35:08;;;;;;;51.67;24.17;;;;;;;-141.50;100.00;63355.56;5010550;28;20133;-77
2024/03/10 00:37:38;;;;;;;45.40;22.75;;;;;;;-141.50;100.00;63355.56;5010237;28;20057;-78
2024/03/10 00:40:07;;;;;;;52.90;24.55;;;;;;;-141.50;100.00;63355.56;4992846;28;20050;-77
2024/03/10 00:42:34;;;;;;;48.83;22.80;;;;;;;-141.50;100.00;63355.56;4992949;28;20142;-77
2024/03/10 00:45:03;;;;;;;57.13;23.55;;;;;;;-141.50;100.00;63355.56;5009723;28;20133;-79
2024/03/10 00:47:30;;;;;;;48.22;22.60;;;;;;;-141.50;100.00;63355.56;5009941;28;20046;-80
2024/03/10 00:49:56;;;;;;;49.70;22.10;;;;;;;-141.50;100.00;63355.56;5017880;28;20069;-79
2024/03/10 00:52:23;;;;;;;49.72;22.55;;;;;;;-141.50;100.00;63355.56;5012597;28;20050;-79
2024/03/10 00:54:50;;;;;;;47.33;22.00;;;;;;;-141.50;100.00;63355.56;4992900;28;20061;-78
2024/03/10 00:57:17;;;;;;;52.10;23.42;;;;;;;-141.50;100.00;63355.56;5012315;28;20079;-79
2024/03/10 00:59:44;;;;;;;46.90;22.02;;;;;;;-141.50;100.00;63355.56;5012577;28;20057;-81
2024/03/10 01:02:12;;;;;;;46.00;21.73;;;;;;;-141.50;100.00;63355.56;5011550;28;20049;-79
2024/03/10 01:04:39;;;;;;;48.88;22.42;;;;;;;-141.50;100.00;63355.56;4991914;28;20141;-78
2024/03/10 01:07:06;;;;;;;47.47;20.75;;;;;;;-141.50;100.00;63355.56;5010480;28;20037;-81
2024/03/10 01:09:33;;;;;;;45.38;21.83;;;;;;;-141.50;100.00;63355.56;5011595;28;20034;-79
2024/03/10 01:12:00;;;;;;;45.47;21.23;;;;;;;-141.50;100.00;63355.56;5011711;28;20057;-81
2024/03/10 01:14:27;;;;;;;47.08;21.80;;;;;;;-141.50;100.00;63355.56;5012470;28;20044;-78
2024/03/10 01:16:54;;;;;;;44.95;21.45;;;;;;;-141.50;100.00;63355.56;4994136;28;20137;-80
2024/03/10 01:19:21;;;;;;;43.92;21.10;;;;;;;-141.50;100.00;63355.56;4994853;28;20042;-81
2024/03/10 01:21:48;;;;;;;43.80;21.35;;;;;;;-141.50;100.00;63355.56;5012287;28;20054;-80
2024/03/10 01:24:15;;;;;;;45.15;20.85;;;;;;;-141.50;100.00;63355.56;5011592;28;20053;-80
2024/03/10 01:26:42;;;;;;;45.08;21.42;;;;;;;-141.50;100.00;63355.56;5012694;28;20061;-80
2024/03/10 01:29:08;;;;;;;49.92;21.95;;;;;;;-141.50;100.00;63355.56;5012730;28;20037;-79
2024/03/10 01:31:36;;;;;;;48.28;22.38;;;;;;;-141.50;100.00;63355.56;4970781;28;20057;-77
2024/03/10 01:34:05;;;;;;;42.80;20.35;;;;;;;-141.50;100.00;63355.56;5010785;28;20209;-78
2024/03/10 01:36:32;;;;;;;39.15;19.50;;;;;;;-141.50;100.00;63355.56;4988661;28;20053;-79
2024/03/10 01:38:58;;;;;;;42.55;20.20;;;;;;;-141.50;100.00;63355.56;5011992;28;20053;-81
2024/03/10 01:41:25;;;;;;;41.65;20.50;;;;;;;-141.50;100.00;63355.56;4990977;28;20053;-79
2024/03/10 01:43:53;;;;;;;44.72;20.23;;;;;;;-141.50;100.00;63355.56;4992145;28;20066;-80
2024/03/10 01:46:21;;;;;;;42.78;20.13;;;;;;;-141.50;100.00;63355.56;5003436;28;20053;-78
2024/03/10 01:48:49;;;;;;;43.35;20.75;;;;;;;-141.50;100.00;63355.56;5014145;28;20072;-79
2024/03/10 01:51:17;;;;;;;45.10;21.00;;;;;;;-141.50;100.00;63355.56;4992599;28;20141;-78
2024/03/10 01:53:46;;;;;;;45.88;21.33;;;;;;;-141.50;100.00;63355.56;5009062;28;20054;-79
2024/03/10 01:56:15;;;;;;;38.75;18.92;;;;;;;-141.50;100.00;63355.56;4982382;28;20428;-79
2024/03/10 01:58:46;;;;;;;46.60;20.88;;;;;;;-141.50;100.00;63355.56;5005670;28;20496;-79
2024/03/10 02:01:14;;;;;;;45.53;20.00;;;;;;;-141.50;100.00;63355.56;4990255;28;20531;-80
2024/03/10 02:03:43;;;;;;;41.42;20.13;;;;;;;-141.50;100.00;63355.56;5009356;28;20546;-79
2024/03/10 02:06:13;;;;;;;43.15;21.38;;;;;;;-141.50;100.00;63355.56;4986868;28;20042;-78
2024/03/10 02:08:45;;;;;;;48.17;20.85;;;;;;;-141.50;100.00;63355.56;5009572;28;20084;-78
2024/03/10 02:11:13;;;;;;;42.67;19.63;;;;;;;-141.50;100.00;63355.56;5007172;28;20069;-79
2024/03/10 02:13:40;;;;;;;42.53;20.40;;;;;;;-141.50;100.00;63355.56;5010365;28;20116;-77
2024/03/10 02:16:08;;;;;;;45.60;20.00;;;;;;;-141.50;100.00;63355.56;4999564;28;20049;-79
2024/03/10 02:18:36;;;;;;;48.22;21.17;;;;;;;-141.50;100.00;63355.56;5005711;28;20045;-78
2024/03/10 02:21:03;;;;;;;43.95;20.48;;;;;;;-141.50;100.00;63355.56;5009042;28;20049;-80
2024/03/10 02:23:40;;;;;;;44.78;20.67;;;;;;;-141.50;100.00;63355.56;5006023;28;20069;-79
2024/03/10 02:26:08;;;;;;;41.00;19.63;;;;;;;-141.50;100.00;63355.56;5010441;28;20065;-78
2024/03/10 02:28:46;;;;;;;44.33;20.48;;;;;;;-141.50;100.00;63355.56;5009943;28;20097;-78
2024/03/10 02:47:44;;;;;;;45.07;19.90;;;;;;;-141.50;100.00;63355.56;4995754;28;20418;-78
2024/03/10 02:50:11;;;;;;;40.75;18.95;;;;;;;-141.50;100.00;63355.56;4973276;28;20054;-79
2024/03/10 02:52:38;;;;;;;41.03;19.58;;;;;;;-141.50;100.00;63355.56;5011344;28;20053;-79
2024/03/10 02:55:06;;;;;;;41.95;20.58;;;;;;;-141.50;100.00;63355.56;5008221;28;20054;-78
2024/03/10 02:57:33;;;;;;;43.75;19.10;;;;;;;-141.50;100.00;63355.56;5001581;28;20057;-78
2024/03/10 03:00:00;;;;;;;43.15;19.75;;;;;;;-141.50;100.00;63355.56;4990044;28;20105;-78
2024/03/10 03:02:29;;;;;;;39.42;18.67;;;;;;;-141.50;100.00;63355.56;5009352;28;20057;-78
2024/03/10 03:04:56;;;;;;;40.20;19.73;;;;;;;-141.50;100.00;63355.56;5008344;28;20057;-79
2024/03/10 03:07:26;;;;;;;43.17;18.48;;;;;;;-141.50;100.00;63355.56;4994413;28;20575;-80
2024/03/10 03:09:52;;;;;;;46.17;19.77;;;;;;;-141.50;100.00;63355.56;5007456;28;20173;-78
2024/03/10 03:12:19;;;;;;;39.45;18.35;;;;;;;-141.50;100.00;63355.56;5009373;28;20527;-79
2024/03/10 03:14:46;;;;;;;40.00;19.33;;;;;;;-141.50;100.00;63355.56;5008621;28;20052;-79
2024/03/10 03:17:12;;;;;;;44.80;19.70;;;;;;;-141.50;100.00;63355.56;5008553;28;20061;-79
2024/03/10 03:19:40;;;;;;;43.28;18.83;;;;;;;-141.50;100.00;63355.56;5009918;28;20081;-79
2024/03/10 03:22:06;;;;;;;39.20;19.55;;;;;;;-141.50;100.00;63355.56;5008967;28;20054;-79
2024/03/10 03:24:33;;;;;;;41.83;19.27;;;;;;;-141.50;100.00;63355.56;5012413;28;20046;-79
2024/03/10 03:27:00;;;;;;;36.47;17.73;;;;;;;-141.50;100.00;63355.56;5014493;28;20077;-80
2024/03/10 03:29:27;;;;;;;40.60;19.35;;;;;;;-141.50;100.00;63355.56;4998097;28;20073;-78
2024/03/10 03:31:54;;;;;;;42.72;20.08;;;;;;;-141.50;100.00;63355.56;5006171;28;20049;-78
2024/03/10 03:34:21;;;;;;;39.85;18.90;;;;;;;-141.50;100.00;63355.56;5009711;28;20053;-79
2024/03/10 03:36:48;;;;;;;41.83;19.85;;;;;;;-141.50;100.00;63355.56;5009075;28;20574;-78
2024/03/10 03:39:15;;;;;;;40.13;18.98;;;;;;;-141.50;100.00;63355.56;4986074;28;20058;-79
2024/03/10 03:41:42;;;;;;;41.22;19.92;;;;;;;-141.50;100.00;63355.56;4992009;28;20050;-80
2024/03/10 03:44:09;;;;;;;41.08;18.70;;;;;;;-141.50;100.00;63355.56;4996486;28;20499;-79
2024/03/10 03:46:35;;;;;;;43.80;19.80;;;;;;;-141.50;100.00;63355.56;5008903;28;20064;-79
2024/03/10 03:49:02;;;;;;;44.40;19.20;;;;;;;-141.50;100.00;63355.56;4991516;28;20053;-76
2024/03/10 03:51:29;;;;;;;43.55;18.92;;;;;;;-141.50;100.00;63355.56;5000745;28;20050;-78
2024/03/10 03:53:56;;;;;;;42.28;19.77;;;;;;;-141.50;100.00;63355.56;5025872;28;20051;-78
2024/03/10 03:56:23;;;;;;;38.33;18.92;;;;;;;-141.50;100.00;63355.56;4993563;28;20459;-79
2024/03/10 03:58:50;;;;;;;39.33;18.17;;;;;;;-141.50;100.00;63355.56;5008696;28;20057;-78
2024/03/10 04:01:17;;;;;;;41.45;19.40;;;;;;;-141.50;100.00;63355.56;5009488;28;20054;-78
2024/03/10 04:03:44;;;;;;;38.30;17.88;;;;;;;-141.50;100.00;63355.56;5008895;28;20058;-79
2024/03/10 04:06:11;;;;;;;38.03;18.52;;;;;;;-141.50;100.00;63355.56;5007776;28;20046;-79
2024/03/10 04:08:37;;;;;;;42.35;18.80;;;;;;;-141.50;100.00;63355.56;4975561;28;20062;-78
2024/03/10 04:11:04;;;;;;;37.33;18.15;;;;;;;-141.50;100.00;63355.56;4990840;28;20053;-78
2024/03/10 04:13:31;;;;;;;41.33;19.42;;;;;;;-141.50;100.00;63355.56;5020115;28;20057;-77
2024/03/10 04:15:58;;;;;;;42.20;18.77;;;;;;;-141.50;100.00;63355.56;5027548;28;20080;-80
2024/03/10 04:18:24;;;;;;;39.25;18.70;;;;;;;-141.50;100.00;63355.56;4996111;28;20071;-78
2024/03/10 04:20:51;;;;;;;40.60;19.10;;;;;;;-141.50;100.00;63355.56;4989060;28;20125;-79
2024/03/10 04:23:17;;;;;;;40.33;18.60;;;;;;;-141.50;100.00;63355.56;4991617;28;20066;-80
2024/03/10 04:25:45;;;;;;;40.05;19.52;;;;;;;-141.50;100.00;63355.56;4991973;28;20125;-80
2024/03/10 04:28:14;;;;;;;35.65;17.38;;;;;;;-141.50;100.00;63355.56;4987743;28;20247;-79
2024/03/10 04:30:41;;;;;;;34.95;17.02;;;;;;;-141.50;100.00;63355.56;4994605;28;20124;-78
2024/03/10 04:33:10;;;;;;;38.40;18.40;;;;;;;-141.50;100.00;63355.56;5010179;28;20049;-78
2024/03/10 04:35:38;;;;;;;35.88;17.02;;;;;;;-141.50;100.00;63355.56;4992188;28;20049;-77
2024/03/10 04:38:05;;;;;;;36.75;17.90;;;;;;;-141.50;100.00;63355.56;5009572;28;20065;-77
2024/03/10 04:40:31;;;;;;;37.72;17.38;;;;;;;-141.50;100.00;63355.56;4973477;28;20046;-78
2024/03/10 04:42:58;;;;;;;37.40;17.17;;;;;;;-141.50;100.00;63355.56;5005990;28;20053;-77
2024/03/10 04:45:25;;;;;;;38.30;17.13;;;;;;;-141.50;100.00;63355.56;5022674;28;20093;-78
2024/03/10 04:47:52;;;;;;;35.42;17.13;;;;;;;-141.50;100.00;63355.56;5003030;28;20046;-77
2024/03/10 04:50:21;;;;;;;33.60;16.58;;;;;;;-141.50;100.00;63355.56;5018547;28;20116;-77
2024/03/10 04:52:48;;;;;;;35.58;16.50;;;;;;;-141.50;100.00;63355.56;4998097;28;20063;-79
2024/03/10 04:55:15;;;;;;;29.63;14.65;;;;;;;-141.50;100.00;63355.56;4991816;28;20057;-79
2024/03/10 04:57:41;;;;;;;29.15;15.07;;;;;;;-141.50;100.00;63355.56;4994873;28;20095;-78
2024/03/10 05:00:10;;;;;;;28.88;14.77;;;;;;;-141.50;100.00;63355.56;4990594;28;20049;-80
2024/03/10 05:02:37;;;;;;;28.98;14.02;;;;;;;-141.50;100.00;63355.56;5012995;28;20061;-78
2024/03/10 05:05:04;;;;;;;31.85;15.13;;;;;;;-141.50;100.00;63355.56;5009725;28;20042;-77
2024/03/10 05:07:31;;;;;;;29.63;15.48;;;;;;;-141.50;100.00;63355.56;4992884;28;20065;-78
2024/03/10 05:09:58;;;;;;;35.95;15.27;;;;;;;-141.50;100.00;63355.56;5010489;28;20108;-79
2024/03/10 05:12:25;;;;;;;29.15;14.43;;;;;;;-141.50;100.00;63355.56;5012260;28;20058;-81
2024/03/10 05:14:51;;;;;;;32.53;15.18;;;;;;;-141.50;100.00;63355.56;5015097;28;20049;-78
2024/03/10 05:17:18;;;;;;;31.60;14.20;;;;;;;-141.50;100.00;63355.56;5018396;28;20082;-78
2024/03/10 05:19:45;;;;;;;34.53;15.23;;;;;;;-141.50;100.00;63355.56;4996313;28;20052;-78
2024/03/10 05:22:12;;;;;;;30.92;14.90;;;;;;;-141.50;100.00;63355.56;5006416;28;20408;-79
2024/03/10 05:24:43;;;;;;;30.00;14.98;;;;;;;-141.50;100.00;63355.56;5011832;28;20416;-79
2024/03/10 05:27:10;;;;;;;32.22;15.23;;;;;;;-141.50;100.00;63355.56;5008853;28;20041;-78
2024/03/10 05:29:37;;;;;;;29.48;14.40;;;;;;;-141.50;100.00;63355.56;5011824;28;20050;-78
2024/03/10 05:32:04;;;;;;;30.17;14.63;;;;;;;-141.50;100.00;63355.56;4992436;28;20680;-80
2024/03/10 05:34:32;;;;;;;28.00;14.00;;;;;;;-141.50;100.00;63355.56;4993794;28;20054;-78
2024/03/10 05:36:59;;;;;;;30.23;14.57;;;;;;;-141.50;100.00;63355.56;4992732;28;20065;-77
2024/03/10 05:39:27;;;;;;;28.65;14.43;;;;;;;-141.50;100.00;63355.56;4997848;28;20072;-78
2024/03/10 05:41:54;;;;;;;29.75;14.85;;;;;;;-141.50;100.00;63355.56;5009908;28;20057;-78
2024/03/10 05:44:21;;;;;;;31.90;15.43;;;;;;;-141.50;100.00;63355.56;5009341;28;20551;-78
2024/03/10 05:46:47;;;;;;;28.65;14.60;;;;;;;-141.50;100.00;63355.56;4986723;28;20050;-77
2024/03/10 05:49:14;;;;;;;30.45;15.02;;;;;;;-141.50;100.00;63355.56;5009798;28;20084;-78
2024/03/10 05:51:41;;;;;;;30.65;15.10;;;;;;;-141.50;100.00;63355.56;4993754;28;20061;-77
2024/03/10 05:54:09;;;;;;;31.70;15.02;;;;;;;-141.50;100.00;63355.56;5011187;28;20046;-77
2024/03/10 05:56:36;;;;;;;29.05;15.15;;;;;;;-141.50;100.00;63355.56;5011444;28;20053;-78
2024/03/10 05:59:05;;;;;;;32.13;15.57;;;;;;;-141.50;100.00;63355.56;5009356;28;20060;-81
2024/03/10 06:01:32;;;;;;;34.58;16.13;;;;;;;-141.50;100.00;63355.56;4992550;28;20064;-78
2024/03/10 06:03:58;;;;;;;31.63;15.38;;;;;;;-141.50;100.00;63355.56;5008242;28;20058;-79
2024/03/10 06:06:25;;;;;;;30.27;15.57;;;;;;;-141.50;100.00;63355.56;5010349;28;20057;-79
2024/03/10 06:08:52;;;;;;;31.55;16.42;;;;;;;-141.50;100.00;63355.56;5009361;28;20066;-78
2024/03/10 06:11:18;;;;;;;33.42;15.68;;;;;;;-141.50;100.00;63355.56;4992751;28;20073;-78
2024/03/10 06:13:46;;;;;;;33.92;16.00;;;;;;;-141.50;100.00;63355.56;5008964;28;20053;-77
2024/03/10 06:16:12;;;;;;;35.38;16.65;;;;;;;-141.50;100.00;63355.56;5009593;28;20053;-77
2024/03/10 06:26:58;;;;;;;32.72;16.30;;;;;;;-141.50;100.00;63355.56;5008563;28;20053;-78
2024/03/10 06:29:25;;;;;;;34.50;16.35;;;;;;;-141.50;100.00;63355.56;4984793;28;20054;-78
2024/03/10 06:31:52;;;;;;;33.65;16.45;;;;;;;-141.50;100.00;63355.56;5008874;28;20060;-79
2024/03/10 06:34:18;;;;;;;34.25;16.33;;;;;;;-141.50;100.00;63355.56;4991723;28;20061;-78
2024/03/10 06:36:49;;;;;;;34.85;17.02;;;;;;;-141.50;100.00;63355.56;5009341;28;20145;-78
2024/03/10 06:39:19;;;;;;;34.08;16.42;;;;;;;-141.50;100.00;63355.56;4998554;28;20049;-80
2024/03/10 06:41:46;;;;;;;35.90;16.80;;;;;;;-141.50;100.00;63355.56;5011177;28;20058;-79
2024/03/10 06:44:19;;;;;;;37.35;17.05;;;;;;;-141.50;100.00;63355.56;4990864;28;20049;-79
2024/03/10 06:46:46;;;;;;;32.47;16.88;;;;;;;-141.50;100.00;63355.56;5010320;28;20049;-78
2024/03/10 06:49:14;;;;;;;34.08;15.48;;;;;;;-141.50;100.00;63355.56;5006931;28;20045;-80
2024/03/10 06:51:40;;;;;;;36.33;17.20;;;;;;;-141.50;100.00;63355.56;4992409;28;20385;-79
2024/03/10 06:54:08;;;;;;;37.58;16.48;;;;;;;-141.50;100.00;63355.56;4993807;28;20057;-79
2024/03/10 06:56:36;;;;;;;40.10;17.65;;;;;;;-141.50;100.00;63355.56;4995218;28;20100;-78
2024/03/10 06:59:03;;;;;;;36.20;16.38;;;;;;;-141.50;100.00;63355.56;5011403;28;20072;-79
2024/03/10 07:01:33;;;;;;;30.45;16.20;;;;;;;-141.50;100.00;63355.56;5014197;28;20054;-79
2024/03/10 07:03:59;;;;;;;32.05;16.17;;;;;;;-141.50;100.00;63355.56;4995861;28;20450;-78
2024/03/10 07:06:26;;;;;;;34.90;17.00;;;;;;;-141.50;100.00;63355.56;5018062;28;20053;-79
2024/03/10 07:08:54;;;;;;;38.70;17.20;;;;;;;-141.50;100.00;63355.56;5021400;28;20056;-80
2024/03/10 07:11:21;;;;;;;35.60;16.40;;;;;;;-141.50;100.00;63355.56;5008397;28;20054;-77
2024/03/10 07:13:51;;;;;;;32.58;15.75;;;;;;;-141.50;100.00;63355.56;4996430;28;20149;-80
2024/03/10 07:16:18;;;;;;;33.95;15.95;;;;;;;-141.50;100.00;63355.56;5012198;28;20850;-80
2024/03/10 07:18:45;;;;;;;34.88;16.90;;;;;;;-141.50;100.00;63355.56;5011851;28;20068;-80
2024/03/10 07:21:16;;;;;;;32.63;15.98;;;;;;;-141.50;100.00;63355.56;5000390;28;20394;-79
2024/03/10 07:23:43;;;;;;;31.65;16.00;;;;;;;-141.50;100.00;63355.56;4993405;28;20050;-79
2024/03/10 07:26:10;;;;;;;33.03;16.30;;;;;;;-141.50;100.00;63355.56;5010796;28;20058;-79
2024/03/10 07:28:37;;;;;;;33.35;15.63;;;;;;;-141.50;100.00;63355.56;4991439;28;20050;-80
2024/03/10 07:31:04;;;;;;;32.17;15.70;;;;;;;-141.50;100.00;63355.56;5009288;28;20048;-80
2024/03/10 07:33:34;;;;;;;34.92;16.65;;;;;;;-141.50;100.00;63355.56;4992146;28;20060;-79
2024/03/10 07:36:01;;;;;;;34.25;16.17;;;;;;;-141.50;100.00;63355.56;5009945;28;20057;-81
2024/03/10 07:38:27;;;;;;;38.42;17.08;;;;;;;-141.50;100.00;63355.56;4999827;28;20105;-79
2024/03/10 07:40:54;;;;;;;32.42;16.30;;;;;;;-141.50;100.00;63355.56;5010704;28;20088;-80
2024/03/10 07:43:25;;;;;;;31.48;15.07;;;;;;;-141.50;100.00;63355.56;5008860;28;20131;-79
2024/03/10 07:45:51;;;;;;;30.65;15.15;;;;;;;-141.50;100.00;63355.56;5009457;28;20120;-78
2024/03/10 07:48:18;;;;;;;29.52;15.00;;;;;;;-141.50;100.00;63355.56;5008915;28;20112;-79
2024/03/10 07:50:45;;;;;;;31.52;15.45;;;;;;;-141.50;100.00;63355.56;5009106;28;20354;-81
2024/03/10 07:53:12;;;;;;;30.55;15.27;;;;;;;-141.50;100.00;63355.56;5006949;28;20042;-81
2024/03/10 07:55:38;;;;;;;32.40;15.35;;;;;;;-141.50;100.00;63355.56;5008009;28;20084;-80
2024/03/10 07:58:05;;;;;;;29.90;14.98;;;;;;;-141.50;100.00;63355.56;5007431;28;20053;-80
2024/03/10 08:00:32;;;;;;;33.00;15.52;;;;;;;-141.50;100.00;63355.56;5009067;28;20045;-81
2024/03/10 08:02:59;;;;;;;32.80;16.17;;;;;;;-141.50;100.00;63355.56;5008338;28;20112;-80
2024/03/10 08:05:26;;;;;;;30.33;15.15;;;;;;;-141.50;100.00;63355.56;4989863;28;20058;-80
2024/03/10 08:07:53;;;;;;;30.13;14.18;;;;;;;-141.50;100.00;63355.56;5004704;28;20053;-79
2024/03/10 08:10:21;;;;;;;27.75;13.82;;;;;;;-141.50;100.00;63355.56;4983982;28;20054;-79
2024/03/10 08:12:48;;;;;;;30.33;14.60;;;;;;;-141.50;100.00;63355.56;4988514;28;20050;-79
2024/03/10 08:15:17;;;;;;;29.65;15.35;;;;;;;-141.50;100.00;63355.56;5011351;28;20041;-80
2024/03/10 08:17:44;;;;;;;31.10;13.90;;;;;;;-141.50;100.00;63355.56;4994278;28;20496;-80
2024/03/10 08:20:14;;;;;;;26.90;13.82;;;;;;;-141.50;100.00;63355.56;4993469;28;20053;-79
2024/03/10 08:22:43;;;;;;;24.17;13.82;;;;;;;-141.50;100.00;63355.56;4978672;28;20141;-79
2024/03/10 08:25:11;;;;;;;27.95;13.77;;;;;;;-141.50;100.00;63355.56;5004583;28;20053;-80
2024/03/10 08:27:38;;;;;;;26.08;13.57;;;;;;;-141.50;100.00;63355.56;4994631;28;20141;-79
2024/03/10 08:30:09;;;;;;;25.80;12.90;;;;;;;-141.50;100.00;63355.56;4993892;28;20046;-79
2024/03/10 08:32:36;;;;;;;23.60;12.90;;;;;;;-141.50;100.00;63355.56;4995409;28;20186;-79
2024/03/10 08:35:09;;;;;;;28.45;13.60;;;;;;;-141.50;100.00;63355.56;5015361;28;20038;-76
2024/03/10 08:37:44;;;;;;;25.33;12.93;;;;;;;-141.50;100.00;63355.56;5016708;28;20432;-78
2024/03/10 08:40:11;;;;;;;23.85;11.57;;;;;;;-141.50;100.00;63355.56;5015869;28;20058;-77
2024/03/10 08:42:43;;;;;;;28.13;13.32;;;;;;;-141.50;100.00;63355.56;4961977;28;20062;-78
2024/03/10 08:45:12;;;;;;;25.30;12.32;;;;;;;-141.50;100.00;63355.56;5013668;28;20136;-76
2024/03/10 08:47:41;;;;;;;24.77;12.52;;;;;;;-141.50;100.00;63355.56;5013189;28;20572;-78
2024/03/10 08:50:10;;;;;;;25.63;12.30;;;;;;;-141.50;100.00;63355.56;5012515;28;20050;-77
2024/03/10 08:52:38;;;;;;;26.40;13.43;;;;;;;-141.50;100.00;63355.56;5012014;28;20594;-77
2024/03/10 08:55:13;;;;;;;23.50;12.38;;;;;;;-141.50;100.00;63355.56;4999594;28;20098;-77
2024/03/10 08:57:42;;;;;;;28.42;12.70;;;;;;;-141.50;100.00;63355.56;4992354;28;20073;-79
2024/03/10 09:00:17;;;;;;;26.15;12.52;;;;;;;-141.50;100.00;63355.56;5014159;28;20129;-77
2024/03/10 09:02:44;;;;;;;;;;;;;;;-141.50;100.00;63355.56;5014919;28;20062;-78
2024/03/10 09:05:12;;;;;;;21.15;10.48;;;;;;;-141.50;100.00;63355.56;4995422;28;19960;-78
2024/03/10 09:07:40;;;;;;;23.05;11.77;;;;;;;-141.50;100.00;63355.56;4995248;28;20483;-77
2024/03/10 09:10:08;;;;;;;21.02;10.90;;;;;;;-141.50;100.00;63355.56;5012852;28;20050;-77
2024/03/10 09:12:35;;;;;;;24.27;11.00;;;;;;;-141.50;100.00;63355.56;4996151;28;20053;-79
2024/03/10 09:15:02;;;;;;;21.50;10.85;;;;;;;-141.50;100.00;63355.56;4993359;28;20046;-81
2024/03/10 09:17:29;;;;;;;21.30;10.48;;;;;;;-141.50;100.00;63355.56;4995232;28;20049;-79
2024/03/10 09:19:58;;;;;;;19.67;10.88;;;;;;;-141.50;100.00;63355.56;5012337;28;20077;-81
2024/03/10 09:22:25;;;;;;;23.58;11.13;;;;;;;-141.50;100.00;63355.56;5012759;28;20107;-79
2024/03/10 09:24:52;;;;;;;21.13;10.30;;;;;;;-141.50;100.00;63355.56;4994501;28;20060;-80
2024/03/10 09:27:19;;;;;;;19.05;10.30;;;;;;;-141.50;100.00;63355.56;5014074;28;20058;-79
2024/03/10 09:29:48;;;;;;;19.70;10.27;;;;;;;-141.50;100.00;63355.56;5013131;28;20136;-78
2024/03/10 09:32:19;;;;;;;20.48;10.30;;;;;;;-141.50;100.00;63355.56;5014237;28;20058;-79
2024/03/10 09:34:47;;;;;;;20.05;10.32;;;;;;;-141.50;100.00;63355.56;5014522;28;20054;-78
2024/03/10 09:37:14;;;;;;;18.92;10.52;;;;;;;-141.50;100.00;63355.56;4994094;28;20686;-78
2024/03/10 09:39:40;;;;;;;17.75;8.65;;;;;;;-141.50;100.00;63355.56;5010996;28;20048;-79
2024/03/10 09:42:07;;;;;;;17.25;9.25;;;;;;;-141.50;100.00;63355.56;4994689;28;20050;-79
2024/03/10 09:44:36;;;;;;;17.25;9.38;;;;;;;-141.50;100.00;63355.56;5012469;28;20056;-78
2024/03/10 09:47:06;;;;;;;16.55;8.88;;;;;;;-141.50;100.00;63355.56;4994491;28;20053;-78
2024/03/10 09:49:33;;;;;;;17.17;9.02;;;;;;;-141.50;100.00;63355.56;5012204;28;20053;-80
2024/03/10 09:52:01;;;;;;;17.60;9.30;;;;;;;-141.50;100.00;63355.56;5011969;28;20081;-79
2024/03/10 09:54:28;;;;;;;17.17;8.85;;;;;;;-141.50;100.00;63355.56;4998659;28;20057;-78
2024/03/10 09:56:55;;;;;;;14.20;8.50;;;;;;;-141.50;100.00;63355.56;5010733;28;20061;-78
2024/03/10 09:59:39;;;;;;;17.27;8.93;;;;;;;-141.50;100.00;63355.56;5013211;28;20108;-78
2024/03/10 10:02:21;;;;;;;16.70;8.77;;;;;;;-141.50;100.00;63355.56;5011904;28;20112;-80
2024/03/10 10:04:56;;;;;;;16.25;9.27;;;;;;;-141.50;100.00;63355.56;5011577;28;20053;-80
2024/03/10 10:07:26;;;;;;;13.98;7.72;;;;;;;-141.50;100.00;63355.56;4978004;28;20053;-79
2024/03/10 10:09:58;;;;;;;19.17;8.68;;;;;;;-141.50;100.00;63355.56;4992701;28;20184;-79
2024/03/10 10:12:29;;;;;;;17.23;8.50;;;;;;;-141.50;100.00;63355.56;4994319;28;20070;-78
2024/03/10 10:14:55;;;;;;;14.90;7.93;;;;;;;-141.50;100.00;63355.56;5010538;28;20054;-80
2024/03/10 10:17:22;;;;;;;14.13;7.93;;;;;;;-141.50;100.00;63355.56;4994938;28;20112;-80
2024/03/10 10:19:52;;;;;;;15.18;7.93;;;;;;;-141.50;100.00;63355.56;5011637;28;20049;-76
2024/03/10 10:22:20;;;;;;;15.63;7.88;;;;;;;-141.50;100.00;63355.56;4995799;28;20054;-78
2024/03/10 10:25:02;;;;;;;15.25;7.05;;;;;;;-141.50;100.00;63355.56;4994962;28;20057;-79
2024/03/10 10:27:31;;;;;;;15.32;8.45;;;;;;;-141.50;100.00;63355.56;5011504;28;20061;-78
2024/03/10 10:29:57;;;;;;;13.43;7.53;;;;;;;-141.50;100.00;63355.56;5011450;28;20281;-76
2024/03/10 10:32:24;;;;;;;14.85;7.88;;;;;;;-141.50;100.00;63355.56;5006388;28;20082;-76
2024/03/10 10:34:52;;;;;;;13.30;7.38;;;;;;;-141.50;100.00;63355.56;5014044;28;20058;-76
2024/03/10 10:37:20;;;;;;;14.10;7.55;;;;;;;-141.50;100.00;63355.56;5015290;28;20057;-78
2024/03/10 10:39:48;;;;;;;11.65;6.50;;;;;;;-141.50;100.00;63355.56;5012634;28;20050;-78
2024/03/10 10:42:16;;;;;;;13.75;7.07;;;;;;;-141.50;100.00;63355.56;4978822;28;20062;-77
2024/03/10 10:45:01;;;;;;;14.07;6.60;;;;;;;-141.50;100.00;63355.56;5010861;28;20780;-77
2024/03/10 10:47:30;;;;;;;14.27;7.10;;;;;;;-141.50;100.00;63355.56;4985941;28;20085;-78
2024/03/10 10:49:57;;;;;;;11.98;7.13;;;;;;;-141.50;100.00;63355.56;5018925;28;20187;-80
2024/03/10 10:52:24;;;;;;;13.02;6.90;;;;;;;-141.50;100.00;63355.56;5014083;28;20141;-79
2024/03/10 10:54:50;;;;;;;13.32;6.80;;;;;;;-141.50;100.00;63355.56;5012076;28;20076;-77
2024/03/10 10:57:18;;;;;;;12.13;6.32;;;;;;;-141.50;100.00;63355.56;4998704;28;20111;-78
2024/03/10 10:59:48;;;;;;;11.95;6.50;;;;;;;-141.50;100.00;63355.56;5013773;28;20072;-77
2024/03/10 11:02:21;;;;;;;10.48;6.10;;;;;;;-141.50;100.00;63355.56;5012837;28;20045;-77
2024/03/10 11:04:53;;;;;;;10.00;6.03;;;;;;;-141.50;100.00;63355.56;5012912;28;20093;-77
2024/03/10 11:07:27;;;;;;;12.70;6.68;;;;;;;-141.50;100.00;63355.56;5011198;28;20566;-79
2024/03/10 11:09:54;;;;;;;11.80;6.30;;;;;;;-141.50;100.00;63355.56;5012140;28;20070;-78
2024/03/10 11:12:22;;;;;;;11.32;6.35;;;;;;;-141.50;100.00;63355.56;4997306;28;20081;-77
2024/03/10 11:14:53;;;;;;;10.07;6.13;;;;;;;-141.50;100.00;63355.56;5012553;28;20045;-76
2024/03/10 11:17:21;;;;;;;10.20;6.82;;;;;;;-141.50;100.00;63355.56;5013843;28;20053;-79
2024/03/10 11:19:51;;;;;;;11.55;6.25;;;;;;;-141.50;100.00;63355.56;4995765;28;20077;-77
2024/03/10 11:22:23;;;;;;;11.13;6.47;;;;;;;-141.50;100.00;63355.56;5012379;28;20129;-79